Time;durP1;ratioP1;P1;durP2;ratioP2;P2;SDS_P1;SDS_P2;PMS_P1;PMS_P2;Temp;Humidity;BMP_temperature;BMP_pressure;BME280_temperature;BME280_humidity;BME280_pressure;Samples;Min_cycle;Max_cycle;Signal;HPM_P1;HPM_P2
2020/12/29 00:01:57;;;;;;;89.60;25.05;;;;;;;;;;4879741;28;20706;-65
2020/12/29 00:04:24;;;;;;;66.15;21.20;;;;;;;;;;4883083;28;20206;-64
2020/12/29 00:06:50;;;;;;;58.85;20.35;;;;;;;;;;4875375;28;20290;-64
2020/12/29 00:09:16;;;;;;;46.72;18.15;;;;;;;;;;4874026;28;20168;-65
2020/12/29 00:11:42;;;;;;;58.85;20.42;;;;;;;;;;4873932;28;20261;-65
2020/12/29 00:14:07;;;;;;;52.15;20.00;;;;;;;;;;4872948;28;20297;-64
2020/12/29 00:16:33;;;;;;;56.22;18.60;;;;;;;;;;4905879;28;20216;-63
2020/12/29 00:18:58;;;;;;;53.83;18.75;;;;;;;;;;4880589;28;20481;-66
2020/12/29 00:21:23;;;;;;;50.53;17.40;;;;;;;;;;4874343;28;20341;-65
2020/12/29 00:23:49;;;;;;;61.25;18.30;;;;;;;;;;4874589;28;20269;-65
2020/12/29 00:26:15;;;;;;;48.58;16.45;;;;;;;;;;4874568;28;20283;-65
2020/12/29 00:28:41;;;;;;;51.67;15.93;;;;;;;;;;4874295;28;20640;-66
2020/12/29 00:31:06;;;;;;;47.95;16.98;;;;;;;;;;4874067;28;20268;-66
2020/12/29 00:33:32;;;;;;;52.30;17.17;;;;;;;;;;4875617;28;20540;-65
2020/12/29 00:35:57;;;;;;;53.65;16.40;;;;;;;;;;4883548;28;20272;-66
2020/12/29 00:38:24;;;;;;;44.75;15.30;;;;;;;;;;4872229;28;20257;-65
2020/12/29 00:40:50;;;;;;;57.20;15.07;;;;;;;;;;4884965;28;20192;-65
2020/12/29 00:43:15;;;;;;;63.15;19.05;;;;;;;;;;4892909;28;20309;-65
2020/12/29 00:45:40;;;;;;;71.90;18.95;;;;;;;;;;4875294;28;20341;-65
2020/12/29 00:48:06;;;;;;;65.57;18.17;;;;;;;;;;4874092;28;20298;-65
2020/12/29 00:50:31;;;;;;;56.25;18.15;;;;;;;;;;4876021;28;20292;-63
2020/12/29 00:52:57;;;;;;;49.75;16.17;;;;;;;;;;4873971;28;20239;-63
2020/12/29 00:55:22;;;;;;;41.47;14.70;;;;;;;;;;4876100;28;20179;-63
2020/12/29 00:57:47;;;;;;;36.50;13.13;;;;;;;;;;4873697;28;20155;-63
2020/12/29 01:00:13;;;;;;;40.13;13.38;;;;;;;;;;4875711;28;20274;-63
2020/12/29 01:02:39;;;;;;;30.30;12.63;;;;;;;;;;4874045;28;20224;-63
2020/12/29 01:05:04;;;;;;;36.92;13.80;;;;;;;;;;4881029;28;20295;-63
2020/12/29 01:07:30;;;;;;;37.80;13.93;;;;;;;;;;4872941;28;20171;-64
2020/12/29 01:09:55;;;;;;;37.25;12.70;;;;;;;;;;4873738;28;20274;-63
2020/12/29 01:12:21;;;;;;;31.88;12.95;;;;;;;;;;4873682;28;20186;-63
2020/12/29 01:14:47;;;;;;;35.40;13.13;;;;;;;;;;4873458;28;20216;-65
2020/12/29 01:17:13;;;;;;;34.88;13.15;;;;;;;;;;4873895;28;20184;-65
2020/12/29 01:19:38;;;;;;;27.65;11.52;;;;;;;;;;4873203;28;20543;-65
2020/12/29 01:22:04;;;;;;;33.30;12.07;;;;;;;;;;4873934;28;20198;-65
2020/12/29 01:24:29;;;;;;;34.42;12.57;;;;;;;;;;4873785;28;20264;-65
2020/12/29 01:26:56;;;;;;;34.83;12.43;;;;;;;;;;4873895;28;20202;-65
2020/12/29 01:29:22;;;;;;;32.05;13.57;;;;;;;;;;4904965;28;20141;-65
2020/12/29 01:31:47;;;;;;;35.83;13.93;;;;;;;;;;4873191;28;20238;-65
2020/12/29 01:34:13;;;;;;;34.90;12.82;;;;;;;;;;4876246;28;20237;-65
2020/12/29 01:36:38;;;;;;;31.63;12.90;;;;;;;;;;4874276;28;20175;-65
2020/12/29 01:39:04;;;;;;;30.63;12.98;;;;;;;;;;4874404;28;20285;-65
2020/12/29 01:41:32;;;;;;;31.52;12.07;;;;;;;;;;4916635;28;20210;-65
2020/12/29 01:44:10;;;;;;;32.88;12.80;;;;;;;;;;4854259;28;20377;-63
2020/12/29 01:46:38;;;;;;;36.45;14.10;;;;;;;;;;4861874;28;20334;-63
2020/12/29 01:49:04;;;;;;;33.78;12.45;;;;;;;;;;4872738;28;20284;-63
2020/12/29 01:51:30;;;;;;;32.55;12.00;;;;;;;;;;4874557;28;20247;-63
2020/12/29 01:53:55;;;;;;;31.60;12.48;;;;;;;;;;4873276;28;20298;-63
2020/12/29 01:56:22;;;;;;;31.67;12.63;;;;;;;;;;4875248;28;20177;-63
2020/12/29 01:58:47;;;;;;;32.20;12.55;;;;;;;;;;4872996;28;20201;-63
2020/12/29 02:01:13;;;;;;;31.92;12.55;;;;;;;;;;4905491;28;20243;-63
2020/12/29 02:03:38;;;;;;;29.98;12.10;;;;;;;;;;4854310;28;20177;-63
2020/12/29 02:06:04;;;;;;;32.42;12.68;;;;;;;;;;4861976;28;20288;-63
2020/12/29 02:08:29;;;;;;;29.42;11.98;;;;;;;;;;4886072;28;20156;-63
2020/12/29 02:10:55;;;;;;;26.85;11.18;;;;;;;;;;4862940;28;20222;-63
2020/12/29 02:13:21;;;;;;;27.70;11.82;;;;;;;;;;4873352;28;20297;-63
2020/12/29 02:15:47;;;;;;;30.10;12.77;;;;;;;;;;4872652;28;20174;-63
2020/12/29 02:18:13;;;;;;;31.75;11.88;;;;;;;;;;4879717;28;20265;-65
2020/12/29 02:20:39;;;;;;;33.58;11.50;;;;;;;;;;4872571;28;20156;-65
2020/12/29 02:23:04;;;;;;;31.55;12.02;;;;;;;;;;4904790;28;20175;-65
2020/12/29 02:25:30;;;;;;;26.23;10.95;;;;;;;;;;4872574;28;20168;-65
2020/12/29 02:27:55;;;;;;;35.40;12.07;;;;;;;;;;4872987;28;20186;-65
2020/12/29 02:30:21;;;;;;;32.95;10.98;;;;;;;;;;4872837;28;20283;-65
2020/12/29 02:32:46;;;;;;;32.60;11.48;;;;;;;;;;4872327;28;20282;-65
2020/12/29 02:35:15;;;;;;;30.40;10.73;;;;;;;;;;4872641;28;20199;-65
2020/12/29 02:37:40;;;;;;;31.58;11.65;;;;;;;;;;4872590;28;20164;-65
2020/12/29 02:40:06;;;;;;;27.50;10.45;;;;;;;;;;4883759;28;20171;-65
2020/12/29 02:42:32;;;;;;;24.20;10.68;;;;;;;;;;4879452;28;20237;-65
2020/12/29 02:44:57;;;;;;;25.17;10.60;;;;;;;;;;4876010;28;20539;-66
2020/12/29 02:47:23;;;;;;;28.60;10.50;;;;;;;;;;4876186;28;20156;-65
2020/12/29 02:49:48;;;;;;;26.67;10.18;;;;;;;;;;4875617;28;20251;-65
2020/12/29 02:52:14;;;;;;;23.25;10.48;;;;;;;;;;4877863;28;20195;-65
2020/12/29 02:54:39;;;;;;;22.52;9.43;;;;;;;;;;4875924;28;20314;-65
2020/12/29 02:57:05;;;;;;;28.02;10.20;;;;;;;;;;4875509;28;20206;-65
2020/12/29 02:59:30;;;;;;;24.00;10.32;;;;;;;;;;4877605;28;20190;-65
2020/12/29 03:01:56;;;;;;;31.40;11.02;;;;;;;;;;4877701;28;20152;-65
2020/12/29 03:04:22;;;;;;;35.60;11.93;;;;;;;;;;4875866;28;20215;-65
2020/12/29 03:06:48;;;;;;;28.88;11.75;;;;;;;;;;4875903;28;20544;-65
2020/12/29 03:09:14;;;;;;;33.10;12.23;;;;;;;;;;4875600;28;20160;-65
2020/12/29 03:11:39;;;;;;;38.45;12.48;;;;;;;;;;4882704;28;20539;-65
2020/12/29 03:14:07;;;;;;;36.08;13.15;;;;;;;;;;4877468;28;20190;-65
2020/12/29 03:16:33;;;;;;;30.88;12.68;;;;;;;;;;4882924;28;20234;-65
2020/12/29 03:19:01;;;;;;;31.98;13.02;;;;;;;;;;4876367;28;20513;-65
2020/12/29 03:21:26;;;;;;;28.40;11.25;;;;;;;;;;4875762;28;20227;-66
2020/12/29 03:23:52;;;;;;;30.48;11.93;;;;;;;;;;4875044;28;20234;-65
2020/12/29 03:26:17;;;;;;;39.88;13.63;;;;;;;;;;4875704;28;20285;-64
2020/12/29 03:28:43;;;;;;;31.55;11.93;;;;;;;;;;4896441;28;20539;-64
2020/12/29 03:31:09;;;;;;;38.10;12.52;;;;;;;;;;4860607;28;20274;-65
2020/12/29 03:33:35;;;;;;;28.48;11.63;;;;;;;;;;4878637;28;20206;-65
2020/12/29 03:36:00;;;;;;;43.13;14.15;;;;;;;;;;4874840;28;20580;-64
2020/12/29 03:38:26;;;;;;;40.90;12.63;;;;;;;;;;4868424;28;20245;-65
2020/12/29 03:40:52;;;;;;;36.47;12.70;;;;;;;;;;4875622;28;20535;-65
2020/12/29 03:43:18;;;;;;;36.55;12.68;;;;;;;;;;4873018;28;20251;-65
2020/12/29 03:45:44;;;;;;;42.40;13.43;;;;;;;;;;4876404;28;20251;-64
2020/12/29 03:48:11;;;;;;;43.85;13.70;;;;;;;;;;4874418;28;20232;-65
2020/12/29 03:50:40;;;;;;;30.90;11.95;;;;;;;;;;4925172;28;20262;-65
2020/12/29 03:53:09;;;;;;;45.05;13.45;;;;;;;;;;4873473;28;20164;-65
2020/12/29 03:55:35;;;;;;;41.47;13.75;;;;;;;;;;4874481;28;20206;-65
2020/12/29 03:58:02;;;;;;;35.15;12.10;;;;;;;;;;4874153;28;20214;-65
2020/12/29 04:00:27;;;;;;;49.88;13.13;;;;;;;;;;4876776;28;20179;-65
2020/12/29 04:02:53;;;;;;;32.38;12.48;;;;;;;;;;4874152;28;20242;-64
2020/12/29 04:05:18;;;;;;;41.60;12.52;;;;;;;;;;4903598;28;20199;-64
2020/12/29 04:07:45;;;;;;;42.35;12.73;;;;;;;;;;4875011;28;20198;-65
2020/12/29 04:10:10;;;;;;;51.17;13.68;;;;;;;;;;4874203;28;20177;-65
2020/12/29 04:12:37;;;;;;;49.22;13.00;;;;;;;;;;4881731;28;20180;-65
2020/12/29 04:15:03;;;;;;;50.55;13.70;;;;;;;;;;4874173;28;20179;-65
2020/12/29 04:17:33;;;;;;;38.47;12.55;;;;;;;;;;4874569;28;20325;-65
2020/12/29 04:19:58;;;;;;;40.33;12.75;;;;;;;;;;4874173;28;20534;-65
2020/12/29 04:22:24;;;;;;;42.65;12.65;;;;;;;;;;4874526;28;20206;-65
2020/12/29 04:24:49;;;;;;;52.05;13.30;;;;;;;;;;4881730;28;20209;-65
2020/12/29 04:27:15;;;;;;;43.38;12.40;;;;;;;;;;4891992;28;20364;-65
2020/12/29 04:29:40;;;;;;;35.50;12.05;;;;;;;;;;4881514;28;20261;-65
2020/12/29 04:32:06;;;;;;;37.15;12.73;;;;;;;;;;4873711;28;20610;-65
2020/12/29 04:34:32;;;;;;;28.25;10.90;;;;;;;;;;4904454;28;20248;-65
2020/12/29 04:36:57;;;;;;;39.00;12.93;;;;;;;;;;4873920;28;20273;-65
2020/12/29 04:39:23;;;;;;;34.55;11.90;;;;;;;;;;4881730;28;20242;-65
2020/12/29 04:41:51;;;;;;;39.35;12.75;;;;;;;;;;4878258;28;20175;-65
2020/12/29 04:44:16;;;;;;;48.53;15.02;;;;;;;;;;4873982;28;20494;-65
2020/12/29 04:46:42;;;;;;;38.38;13.57;;;;;;;;;;4873143;28;20248;-65
2020/12/29 04:49:08;;;;;;;57.47;15.88;;;;;;;;;;4904434;28;20585;-65
2020/12/29 04:51:34;;;;;;;45.50;14.57;;;;;;;;;;4881095;28;20288;-65
2020/12/29 04:54:05;;;;;;;76.72;17.85;;;;;;;;;;4873260;28;20254;-65
2020/12/29 04:56:32;;;;;;;94.05;17.58;;;;;;;;;;4904315;28;20254;-65
2020/12/29 04:58:58;;;;;;;53.42;14.77;;;;;;;;;;4873433;28;20183;-65
2020/12/29 05:01:24;;;;;;;52.70;14.00;;;;;;;;;;4872415;28;20137;-65
2020/12/29 05:03:50;;;;;;;58.60;14.88;;;;;;;;;;4873577;28;20241;-65
2020/12/29 05:06:15;;;;;;;45.22;12.70;;;;;;;;;;4873512;28;20265;-65
2020/12/29 05:08:45;;;;;;;39.90;12.50;;;;;;;;;;4873531;28;20202;-65
2020/12/29 05:11:11;;;;;;;44.90;12.93;;;;;;;;;;4872500;28;20230;-65
2020/12/29 05:13:36;;;;;;;56.67;13.65;;;;;;;;;;4872829;28;20265;-65
2020/12/29 05:16:01;;;;;;;57.90;14.32;;;;;;;;;;4881004;28;20211;-65
2020/12/29 05:18:28;;;;;;;89.63;16.25;;;;;;;;;;4873155;28;20267;-65
2020/12/29 05:20:56;;;;;;;79.57;15.32;;;;;;;;;;4872845;28;20190;-66
2020/12/29 05:23:21;;;;;;;74.07;16.13;;;;;;;;;;4880705;28;20392;-65
2020/12/29 05:25:47;;;;;;;38.95;11.80;;;;;;;;;;4881978;28;20302;-65
2020/12/29 05:28:13;;;;;;;47.50;12.52;;;;;;;;;;4872669;28;20257;-65
2020/12/29 05:30:39;;;;;;;48.25;13.60;;;;;;;;;;4873469;28;20275;-65
2020/12/29 05:33:12;;;;;;;72.18;14.75;;;;;;;;;;4900561;28;20359;-65
2020/12/29 05:35:41;;;;;;;63.35;14.40;;;;;;;;;;4873244;28;20266;-65
2020/12/29 05:38:07;;;;;;;51.65;13.52;;;;;;;;;;4891322;28;20186;-65
2020/12/29 05:40:33;;;;;;;87.35;15.38;;;;;;;;;;4853831;28;20535;-65
2020/12/29 05:42:59;;;;;;;77.90;15.15;;;;;;;;;;4882024;28;20144;-65
2020/12/29 05:45:29;;;;;;;54.25;13.52;;;;;;;;;;4872795;28;20201;-63
2020/12/29 05:47:58;;;;;;;63.90;14.63;;;;;;;;;;4872363;28;20500;-63
2020/12/29 05:50:27;;;;;;;45.47;12.27;;;;;;;;;;4898998;28;20167;-62
2020/12/29 05:52:59;;;;;;;89.82;15.43;;;;;;;;;;4892340;28;20513;-62
2020/12/29 05:55:24;;;;;;;65.13;14.45;;;;;;;;;;4886989;28;20164;-62
2020/12/29 05:58:02;;;;;;;53.47;11.73;;;;;;;;;;4870138;28;20321;-62
2020/12/29 06:00:28;;;;;;;73.47;14.93;;;;;;;;;;4872781;28;20535;-62
2020/12/29 06:02:58;;;;;;;57.50;12.98;;;;;;;;;;4873156;28;20187;-62
2020/12/29 06:05:24;;;;;;;64.00;13.57;;;;;;;;;;4872575;28;20198;-62
2020/12/29 06:07:54;;;;;;;39.65;12.02;;;;;;;;;;4872369;28;20171;-63
2020/12/29 06:10:20;;;;;;;45.20;12.98;;;;;;;;;;4872982;28;20234;-62
2020/12/29 06:12:50;;;;;;;48.70;12.82;;;;;;;;;;4874067;28;20524;-62
2020/12/29 06:15:21;;;;;;;68.63;14.20;;;;;;;;;;4876116;28;20531;-63
2020/12/29 06:17:52;;;;;;;49.75;11.93;;;;;;;;;;4876719;28;20583;-65
2020/12/29 06:20:18;;;;;;;88.55;14.57;;;;;;;;;;4890455;28;20161;-65
2020/12/29 06:22:44;;;;;;;125.43;17.17;;;;;;;;;;4857425;28;20168;-65
2020/12/29 06:25:15;;;;;;;60.25;13.43;;;;;;;;;;4874222;28;20177;-65
2020/12/29 06:27:45;;;;;;;45.47;11.93;;;;;;;;;;4876644;28;20160;-65
2020/12/29 06:30:12;;;;;;;35.72;10.95;;;;;;;;;;4876221;28;20512;-64
2020/12/29 06:32:40;;;;;;;33.15;10.02;;;;;;;;;;4876193;28;20283;-64
2020/12/29 06:35:05;;;;;;;44.25;10.27;;;;;;;;;;4902754;28;20516;-63
2020/12/29 06:37:43;;;;;;;57.17;11.73;;;;;;;;;;4857287;28;20185;-66
2020/12/29 06:40:09;;;;;;;29.08;8.85;;;;;;;;;;4890618;28;20187;-66
2020/12/29 06:42:41;;;;;;;44.85;10.50;;;;;;;;;;4872397;28;20191;-66
2020/12/29 06:45:08;;;;;;;26.67;8.55;;;;;;;;;;4873983;28;20265;-66
2020/12/29 06:47:37;;;;;;;29.65;8.75;;;;;;;;;;4877583;28;20175;-67
2020/12/29 06:50:19;;;;;;;37.63;9.32;;;;;;;;;;4885655;28;20200;-66
2020/12/29 06:52:52;;;;;;;33.38;8.80;;;;;;;;;;4886803;28;20238;-66
2020/12/29 06:55:19;;;;;;;43.15;9.20;;;;;;;;;;4881126;28;20520;-66
2020/12/29 06:57:50;;;;;;;38.70;9.43;;;;;;;;;;4908003;28;20265;-66
2020/12/29 07:00:15;;;;;;;70.15;10.32;;;;;;;;;;4877022;28;20206;-68
2020/12/29 07:02:44;;;;;;;42.47;9.68;;;;;;;;;;4893668;28;20199;-66
2020/12/29 07:05:22;;;;;;;33.08;9.10;;;;;;;;;;4893155;28;20572;-66
2020/12/29 07:07:51;;;;;;;42.15;9.98;;;;;;;;;;4894388;28;20181;-66
2020/12/29 07:10:18;;;;;;;26.55;9.02;;;;;;;;;;4879997;28;20187;-65
2020/12/29 07:12:47;;;;;;;58.60;11.80;;;;;;;;;;4880467;28;20266;-65
2020/12/29 07:15:14;;;;;;;40.00;10.55;;;;;;;;;;4881333;28;20239;-65
2020/12/29 07:17:39;;;;;;;39.15;10.95;;;;;;;;;;4885386;28;20206;-65
2020/12/29 07:20:16;;;;;;;37.03;10.35;;;;;;;;;;4885313;28;20186;-65
2020/12/29 07:22:41;;;;;;;54.47;11.82;;;;;;;;;;4882454;28;20277;-65
2020/12/29 07:25:07;;;;;;;34.78;11.10;;;;;;;;;;4884761;28;20271;-65
2020/12/29 07:27:36;;;;;;;36.90;10.25;;;;;;;;;;4889521;28;20605;-65
2020/12/29 07:30:04;;;;;;;43.78;11.00;;;;;;;;;;4885146;28;20312;-65
2020/12/29 07:32:32;;;;;;;38.53;10.85;;;;;;;;;;4874143;28;20256;-65
2020/12/29 07:35:00;;;;;;;41.67;11.13;;;;;;;;;;4874468;28;20207;-65
2020/12/29 07:37:25;;;;;;;61.97;12.95;;;;;;;;;;4874808;28;20353;-65
2020/12/29 07:39:51;;;;;;;52.30;13.48;;;;;;;;;;4876734;28;20723;-65
2020/12/29 07:42:17;;;;;;;55.88;13.32;;;;;;;;;;4887411;28;20177;-64
2020/12/29 07:44:43;;;;;;;85.80;15.73;;;;;;;;;;4881868;28;20178;-65
2020/12/29 07:47:09;;;;;;;46.65;13.23;;;;;;;;;;4885871;28;20551;-65
2020/12/29 07:49:34;;;;;;;76.65;15.20;;;;;;;;;;4882747;28;20274;-65
2020/12/29 07:52:00;;;;;;;65.28;13.63;;;;;;;;;;4873985;28;20609;-65
2020/12/29 07:54:25;;;;;;;58.88;14.00;;;;;;;;;;4874331;28;20164;-65
2020/12/29 07:56:51;;;;;;;47.20;13.07;;;;;;;;;;4882670;28;20195;-64
2020/12/29 07:59:17;;;;;;;64.35;14.00;;;;;;;;;;4873680;28;20242;-65
2020/12/29 08:01:48;;;;;;;49.75;12.55;;;;;;;;;;4877454;28;20273;-65
2020/12/29 08:04:24;;;;;;;43.40;11.68;;;;;;;;;;4890179;28;20197;-66
2020/12/29 08:06:49;;;;;;;41.53;11.27;;;;;;;;;;4880763;28;20192;-65
2020/12/29 08:09:15;;;;;;;60.60;12.80;;;;;;;;;;4875586;28;20238;-63
2020/12/29 08:11:40;;;;;;;67.03;13.15;;;;;;;;;;4883645;28;20190;-63
2020/12/29 08:14:06;;;;;;;69.07;12.90;;;;;;;;;;4874182;28;20291;-63
2020/12/29 08:16:31;;;;;;;67.53;14.05;;;;;;;;;;4873450;28;20168;-63
2020/12/29 08:19:01;;;;;;;82.60;13.52;;;;;;;;;;4882199;28;20272;-66
2020/12/29 08:21:33;;;;;;;57.28;12.32;;;;;;;;;;4892817;28;20163;-66
2020/12/29 08:24:00;;;;;;;50.92;12.65;;;;;;;;;;4884492;28;20203;-66
2020/12/29 08:26:25;;;;;;;55.05;11.95;;;;;;;;;;4885832;28;20174;-66
2020/12/29 08:28:51;;;;;;;39.78;11.05;;;;;;;;;;4884384;28;20202;-66
2020/12/29 08:31:20;;;;;;;46.22;11.50;;;;;;;;;;4884402;28;20168;-65
2020/12/29 08:33:47;;;;;;;40.95;12.23;;;;;;;;;;4885582;28;20221;-66
2020/12/29 08:36:20;;;;;;;53.88;13.00;;;;;;;;;;4885719;28;20214;-66
2020/12/29 08:38:53;;;;;;;48.38;13.60;;;;;;;;;;4883826;28;20178;-66
2020/12/29 08:41:21;;;;;;;50.72;11.80;;;;;;;;;;4880788;28;20343;-66
2020/12/29 08:43:48;;;;;;;38.25;11.98;;;;;;;;;;4885316;28;20184;-63
2020/12/29 08:46:24;;;;;;;34.55;11.38;;;;;;;;;;4886010;28;20183;-66
2020/12/29 08:48:56;;;;;;;36.78;11.40;;;;;;;;;;4885708;28;20202;-65
2020/12/29 08:51:27;;;;;;;50.08;12.18;;;;;;;;;;4885258;28;20477;-65
2020/12/29 08:53:53;;;;;;;49.83;12.45;;;;;;;;;;4888594;28;20253;-65
2020/12/29 08:56:21;;;;;;;52.72;12.23;;;;;;;;;;4888305;28;20205;-66
2020/12/29 08:58:47;;;;;;;32.83;10.93;;;;;;;;;;4894093;28;20182;-65
2020/12/29 09:01:28;;;;;;;41.15;11.40;;;;;;;;;;4891627;28;20590;-65
2020/12/29 09:03:54;;;;;;;42.83;10.88;;;;;;;;;;4875386;28;20280;-63
2020/12/29 09:06:19;;;;;;;131.32;42.42;;;;;;;;;;4879900;28;20496;-63
2020/12/29 09:08:45;;;;;;;82.95;22.80;;;;;;;;;;4878397;28;20601;-62
2020/12/29 09:11:15;;;;;;;52.97;15.10;;;;;;;;;;4874150;28;20276;-63
2020/12/29 09:13:59;;;;;;;60.45;17.42;;;;;;;;;;4897712;28;20557;-65
2020/12/29 09:16:24;;;;;;;54.38;13.45;;;;;;;;;;4871491;28;20332;-65
2020/12/29 09:18:50;;;;;;;79.05;13.80;;;;;;;;;;4872620;28;20670;-65
2020/12/29 09:21:19;;;;;;;74.65;11.43;;;;;;;;;;4876325;28;20174;-65
2020/12/29 09:23:55;;;;;;;89.95;12.55;;;;;;;;;;4888288;28;20352;-65
2020/12/29 09:26:21;;;;;;;60.75;10.18;;;;;;;;;;4883672;28;20503;-65
2020/12/29 09:28:47;;;;;;;60.00;10.60;;;;;;;;;;4882362;28;20201;-65
2020/12/29 09:31:13;;;;;;;33.72;9.10;;;;;;;;;;4876599;28;20336;-65
2020/12/29 09:33:39;;;;;;;57.33;10.35;;;;;;;;;;4875816;28;20218;-65
2020/12/29 09:36:06;;;;;;;63.30;9.98;;;;;;;;;;4882580;28;20436;-65
2020/12/29 09:38:32;;;;;;;60.63;9.90;;;;;;;;;;4887449;28;20163;-65
2020/12/29 09:40:58;;;;;;;33.33;7.80;;;;;;;;;;4882449;28;20229;-65
2020/12/29 09:43:25;;;;;;;61.30;10.63;;;;;;;;;;4884477;28;20202;-65
2020/12/29 09:45:51;;;;;;;21.08;7.90;;;;;;;;;;4873289;28;20242;-65
2020/12/29 09:48:17;;;;;;;23.95;10.52;;;;;;;;;;4879880;28;20176;-65
2020/12/29 09:50:42;;;;;;;27.00;9.15;;;;;;;;;;4872727;28;20199;-65
2020/12/29 09:53:12;;;;;;;16.58;8.50;;;;;;;;;;4871163;28;20183;-64
2020/12/29 09:55:38;;;;;;;66.18;11.65;;;;;;;;;;4876851;28;20274;-65
2020/12/29 09:58:05;;;;;;;31.98;8.10;;;;;;;;;;4880511;28;20258;-65
2020/12/29 10:00:31;;;;;;;44.15;8.68;;;;;;;;;;4877285;28;20559;-64
2020/12/29 10:03:00;;;;;;;49.78;8.80;;;;;;;;;;4877431;28;20233;-65
2020/12/29 10:05:26;;;;;;;24.63;7.50;;;;;;;;;;4885349;28;20531;-65
2020/12/29 10:07:52;;;;;;;69.82;11.07;;;;;;;;;;4876839;28;20175;-66
2020/12/29 10:10:18;;;;;;;26.52;8.00;;;;;;;;;;4877299;28;20243;-64
2020/12/29 10:12:43;;;;;;;30.38;8.65;;;;;;;;;;4884069;28;20365;-65
2020/12/29 10:15:09;;;;;;;40.83;9.43;;;;;;;;;;4877504;28;20186;-65
2020/12/29 10:17:35;;;;;;;58.75;9.50;;;;;;;;;;4894395;28;20340;-65
2020/12/29 10:20:01;;;;;;;55.17;9.82;;;;;;;;;;4896620;28;20159;-64
2020/12/29 10:22:26;;;;;;;52.17;9.05;;;;;;;;;;4895862;28;20223;-65
2020/12/29 10:24:51;;;;;;;98.72;9.95;;;;;;;;;;4894369;28;20201;-64
2020/12/29 10:27:17;;;;;;;45.83;9.05;;;;;;;;;;4879757;28;20225;-64
2020/12/29 10:29:42;;;;;;;143.30;13.50;;;;;;;;;;4881606;28;20306;-64
2020/12/29 10:32:07;;;;;;;32.42;8.30;;;;;;;;;;4897776;28;20519;-64
2020/12/29 10:34:33;;;;;;;62.95;10.13;;;;;;;;;;4881151;28;20181;-64
2020/12/29 10:36:58;;;;;;;170.88;12.25;;;;;;;;;;4881258;28;20265;-64
2020/12/29 10:39:24;;;;;;;62.92;9.63;;;;;;;;;;4903877;28;20693;-65
2020/12/29 10:41:50;;;;;;;37.72;8.35;;;;;;;;;;4895801;28;20171;-65
2020/12/29 10:44:16;;;;;;;57.72;10.35;;;;;;;;;;4897265;28;20170;-64
2020/12/29 10:46:45;;;;;;;30.17;8.40;;;;;;;;;;4884184;28;20225;-65
2020/12/29 10:49:10;;;;;;;65.22;10.50;;;;;;;;;;4889448;28;20546;-65
2020/12/29 10:51:35;;;;;;;101.55;12.88;;;;;;;;;;4898149;28;20131;-65
2020/12/29 10:54:01;;;;;;;48.83;10.63;;;;;;;;;;4886069;28;20226;-65
2020/12/29 10:56:26;;;;;;;53.45;13.10;;;;;;;;;;4889006;28;20191;-65
2020/12/29 10:58:52;;;;;;;46.95;10.35;;;;;;;;;;4885274;28;20193;-65
2020/12/29 11:01:21;;;;;;;86.75;11.48;;;;;;;;;;4886363;28;20245;-65
2020/12/29 11:03:48;;;;;;;30.77;9.07;;;;;;;;;;4883940;28;20175;-64
2020/12/29 11:06:14;;;;;;;61.05;13.85;;;;;;;;;;4891139;28;20264;-64
2020/12/29 11:08:40;;;;;;;34.15;11.50;;;;;;;;;;4877549;28;20479;-64
2020/12/29 11:11:06;;;;;;;22.15;9.45;;;;;;;;;;4883062;28;20274;-67
2020/12/29 11:13:32;;;;;;;27.65;9.93;;;;;;;;;;4881799;28;20291;-67
2020/12/29 11:15:57;;;;;;;29.25;9.45;;;;;;;;;;4875850;28;20191;-66
2020/12/29 11:18:23;;;;;;;17.98;8.70;;;;;;;;;;4876337;28;20273;-66
2020/12/29 11:20:52;;;;;;;19.08;8.05;;;;;;;;;;4879126;28;20158;-66
2020/12/29 11:23:17;;;;;;;36.50;8.35;;;;;;;;;;4885673;28;20570;-66
2020/12/29 11:25:43;;;;;;;18.90;7.75;;;;;;;;;;4875943;28;20202;-66
2020/12/29 11:28:08;;;;;;;15.55;7.03;;;;;;;;;;4877255;28;20159;-65
2020/12/29 11:30:34;;;;;;;18.10;7.03;;;;;;;;;;4875941;28;20253;-65
2020/12/29 11:32:59;;;;;;;17.15;7.25;;;;;;;;;;4874934;28;20235;-66
2020/12/29 11:35:24;;;;;;;14.43;6.47;;;;;;;;;;4905446;28;20029;-68
2020/12/29 11:37:50;;;;;;;18.40;7.60;;;;;;;;;;5030734;28;20127;-68
2020/12/29 11:40:15;;;;;;;15.23;6.85;;;;;;;;;;5020644;28;20374;-70
2020/12/29 11:42:40;;;;;;;17.20;6.90;;;;;;;;;;5029280;28;20381;-69
2020/12/29 11:45:05;;;;;;;14.50;6.78;;;;;;;;;;5033902;28;20032;-71
2020/12/29 11:47:31;;;;;;;15.68;6.70;;;;;;;;;;5039768;28;20125;-70
2020/12/29 11:49:56;;;;;;;24.05;7.35;;;;;;;;;;5038236;28;20099;-68
2020/12/29 11:52:24;;;;;;;18.58;6.78;;;;;;;;;;5033825;28;20029;-68
2020/12/29 11:54:50;;;;;;;19.30;6.97;;;;;;;;;;5032592;28;20038;-68
2020/12/29 11:57:16;;;;;;;30.95;7.38;;;;;;;;;;5040690;28;20018;-69
2020/12/29 11:59:41;;;;;;;18.35;6.72;;;;;;;;;;5032985;28;20394;-68
2020/12/29 12:02:06;;;;;;;19.25;6.88;;;;;;;;;;5032175;28;20040;-71
2020/12/29 12:04:31;;;;;;;19.13;6.63;;;;;;;;;;5032420;28;20458;-69
2020/12/29 12:06:57;;;;;;;11.60;5.80;;;;;;;;;;5031675;28;20025;-68
2020/12/29 12:09:22;;;;;;;16.17;7.00;;;;;;;;;;5031417;28;20513;-75
2020/12/29 12:11:47;;;;;;;19.55;6.90;;;;;;;;;;5030871;28;20105;-68
2020/12/29 12:14:13;;;;;;;26.73;7.35;;;;;;;;;;5033598;28;20046;-68
2020/12/29 12:16:38;;;;;;;17.00;6.72;;;;;;;;;;5032476;28;20075;-68
2020/12/29 12:19:04;;;;;;;17.88;7.80;;;;;;;;;;5030075;28;20068;-73
2020/12/29 12:21:30;;;;;;;18.45;7.35;;;;;;;;;;5032064;28;20030;-68
2020/12/29 12:23:58;;;;;;;14.90;7.15;;;;;;;;;;5031126;28;20533;-69
2020/12/29 12:26:24;;;;;;;25.30;8.07;;;;;;;;;;5032125;28;20033;-69
2020/12/29 12:28:49;;;;;;;20.80;7.30;;;;;;;;;;5032225;28;20059;-71
2020/12/29 12:31:15;;;;;;;19.67;7.25;;;;;;;;;;5032396;28;20082;-73
2020/12/29 12:33:41;;;;;;;24.13;8.30;;;;;;;;;;5030831;28;20073;-68
2020/12/29 12:36:06;;;;;;;18.15;7.47;;;;;;;;;;5031899;28;20436;-68
2020/12/29 12:38:31;;;;;;;22.48;7.57;;;;;;;;;;5031516;28;20037;-71
2020/12/29 12:40:56;;;;;;;20.70;7.30;;;;;;;;;;5030355;28;20116;-68
2020/12/29 12:43:22;;;;;;;34.80;8.82;;;;;;;;;;5032617;28;20034;-69
2020/12/29 12:45:47;;;;;;;17.00;7.20;;;;;;;;;;5032511;28;20441;-68
2020/12/29 12:48:13;;;;;;;36.40;8.07;;;;;;;;;;5031494;28;20021;-68
2020/12/29 12:50:38;;;;;;;21.25;7.32;;;;;;;;;;5030928;28;20032;-69
2020/12/29 12:53:03;;;;;;;42.75;8.27;;;;;;;;;;5030856;28;20402;-69
2020/12/29 12:55:28;;;;;;;17.75;5.93;;;;;;;;;;5031040;28;20028;-69
2020/12/29 12:57:54;;;;;;;27.92;6.65;;;;;;;;;;5030865;28;20110;-68
2020/12/29 13:00:19;;;;;;;40.15;7.55;;;;;;;;;;5031195;28;20445;-69
2020/12/29 13:02:44;;;;;;;25.40;6.95;;;;;;;;;;5029356;28;20024;-68
2020/12/29 13:05:10;;;;;;;19.95;6.72;;;;;;;;;;5031717;28;20059;-68
2020/12/29 13:07:35;;;;;;;17.38;6.22;;;;;;;;;;5030982;28;20037;-68
2020/12/29 13:10:00;;;;;;;17.73;5.90;;;;;;;;;;5030640;28;20216;-69
2020/12/29 13:12:25;;;;;;;26.55;7.32;;;;;;;;;;5030268;28;20044;-68
2020/12/29 13:14:51;;;;;;;21.52;6.90;;;;;;;;;;5032442;28;20434;-68
2020/12/29 13:17:16;;;;;;;20.33;6.43;;;;;;;;;;5032034;28;20028;-69
2020/12/29 13:19:41;;;;;;;14.07;5.93;;;;;;;;;;5030072;28;20035;-68
2020/12/29 13:22:06;;;;;;;18.67;5.80;;;;;;;;;;5030427;28;20039;-68
2020/12/29 13:24:32;;;;;;;16.77;5.38;;;;;;;;;;5029518;28;20025;-69
2020/12/29 13:26:57;;;;;;;15.13;4.25;;;;;;;;;;5030981;28;20041;-69
2020/12/29 13:29:22;;;;;;;15.80;4.72;;;;;;;;;;5032249;28;20461;-71
2020/12/29 13:31:48;;;;;;;11.32;3.78;;;;;;;;;;5030666;28;20116;-68
2020/12/29 13:34:13;;;;;;;9.55;3.50;;;;;;;;;;5029972;28;20061;-68
2020/12/29 13:36:38;;;;;;;11.23;3.30;;;;;;;;;;5030355;28;20046;-68
2020/12/29 13:39:04;;;;;;;10.02;3.53;;;;;;;;;;5030414;28;20373;-68
2020/12/29 13:41:29;;;;;;;10.52;2.67;;;;;;;;;;5031338;28;20061;-69
2020/12/29 13:43:54;;;;;;;6.10;2.78;;;;;;;;;;5030733;28;20464;-70
2020/12/29 13:46:19;;;;;;;7.82;2.72;;;;;;;;;;5047709;28;20017;-68
2020/12/29 13:48:45;;;;;;;6.75;2.60;;;;;;;;;;5051205;28;20465;-67
2020/12/29 13:51:11;;;;;;;7.25;2.13;;;;;;;;;;5047874;28;20095;-70
2020/12/29 13:53:36;;;;;;;7.15;2.70;;;;;;;;;;5037559;28;20369;-70
2020/12/29 13:56:01;;;;;;;3.53;1.90;;;;;;;;;;5040536;28;20526;-68
2020/12/29 13:58:27;;;;;;;3.60;1.92;;;;;;;;;;5041317;28;20025;-68
2020/12/29 14:00:52;;;;;;;3.58;1.80;;;;;;;;;;5040521;28;20005;-68
2020/12/29 14:03:17;;;;;;;5.45;2.70;;;;;;;;;;5040723;28;20123;-68
2020/12/29 14:05:45;;;;;;;4.82;1.88;;;;;;;;;;5040221;28;20045;-68
2020/12/29 14:08:11;;;;;;;3.78;1.83;;;;;;;;;;5033833;28;20090;-68
2020/12/29 14:10:36;;;;;;;5.53;2.28;;;;;;;;;;5030187;28;20108;-73
2020/12/29 14:13:01;;;;;;;4.85;2.20;;;;;;;;;;5030999;28;20112;-68
2020/12/29 14:15:27;;;;;;;6.50;2.53;;;;;;;;;;5031256;28;20025;-71
2020/12/29 14:17:52;;;;;;;5.70;2.30;;;;;;;;;;5029983;28;20378;-69